createdAt,value
2022-07-30T00:00:38.327Z,55.08
2022-07-30T00:03:06.943Z,54.99
2022-07-30T00:05:33.600Z,54.67
2022-07-30T00:08:00.150Z,54.55
2022-07-30T00:10:27.727Z,54.90
2022-07-30T00:12:54.282Z,54.33
2022-07-30T00:15:20.856Z,55.12
2022-07-30T00:17:49.165Z,54.33
2022-07-30T00:20:16.470Z,54.59
2022-07-30T00:22:43.015Z,54.96
2022-07-30T00:25:10.708Z,54.41
2022-07-30T00:27:37.311Z,55.29
2022-07-30T00:30:05.310Z,54.80
2022-07-30T00:32:31.962Z,55.02
2022-07-30T00:34:58.578Z,55.14
2022-07-30T00:37:25.162Z,55.55
2022-07-30T00:39:51.671Z,56.09
2022-07-30T00:42:25.563Z,56.21
2022-07-30T00:44:53.238Z,55.82
2022-07-30T00:47:20.600Z,56.01
2022-07-30T00:49:47.293Z,55.55
2022-07-30T00:52:14.122Z,56.67
2022-07-30T00:54:40.646Z,56.23
2022-07-30T00:57:07.413Z,55.42
2022-07-30T00:59:34.544Z,54.98
2022-07-30T01:02:01.827Z,54.60
2022-07-30T01:04:29.027Z,54.27
2022-07-30T01:06:55.653Z,54.66
2022-07-30T01:09:22.256Z,54.29
2022-07-30T01:11:48.900Z,53.98
2022-07-30T01:14:15.775Z,54.29
2022-07-30T01:16:43.433Z,54.65
2022-07-30T01:19:36.232Z,54.68
2022-07-30T01:22:37.164Z,56.30
2022-07-30T01:25:03.695Z,55.86
2022-07-30T01:27:32.748Z,55.49
2022-07-30T01:30:02.589Z,55.02
2022-07-30T01:32:30.788Z,56.14
2022-07-30T01:35:00.768Z,56.61
2022-07-30T01:37:29.210Z,56.53
2022-07-30T01:39:56.647Z,56.47
2022-07-30T01:42:25.758Z,56.37
2022-07-30T01:44:53.261Z,55.95
2022-07-30T01:47:22.488Z,56.23
2022-07-30T01:49:50.568Z,56.66
2022-07-30T01:52:18.776Z,56.55
2022-07-30T01:54:49.027Z,55.78
2022-07-30T01:57:19.194Z,55.29
2022-07-30T01:59:50.653Z,55.18
2022-07-30T02:02:18.055Z,55.93
2022-07-30T02:04:45.036Z,56.43
2022-07-30T02:07:27.858Z,58.06
2022-07-30T02:09:59.712Z,57.71
2022-07-30T02:12:29.792Z,57.56
2022-07-30T02:15:10.968Z,57.41
2022-07-30T02:17:44.929Z,58.01
2022-07-30T02:20:13.589Z,56.74
2022-07-30T02:22:42.670Z,55.92
2022-07-30T02:25:10.677Z,56.44
2022-07-30T02:27:40.420Z,56.50
2022-07-30T02:30:08.660Z,56.34
2022-07-30T02:32:38.815Z,57.57
2022-07-30T02:35:17.230Z,56.87
2022-07-30T02:37:46.982Z,56.67
2022-07-30T02:40:16.822Z,56.56
2022-07-30T02:42:47.123Z,56.58
2022-07-30T02:45:16.754Z,56.23
2022-07-30T02:47:44.499Z,56.69
2022-07-30T02:50:13.480Z,57.09
2022-07-30T02:52:41.580Z,57.57
2022-07-30T02:55:11.023Z,58.08
2022-07-30T02:57:43.373Z,57.64
2022-07-30T03:00:11.904Z,57.54
2022-07-30T03:02:40.765Z,57.82
2022-07-30T03:05:13.851Z,57.36
2022-07-30T03:07:41.300Z,57.69
2022-07-30T03:10:08.680Z,58.47
2022-07-30T03:12:38.969Z,58.28
2022-07-30T03:15:06.471Z,59.50
2022-07-30T03:17:43.109Z,58.71
2022-07-30T03:20:13.132Z,57.99
2022-07-30T03:22:48.181Z,57.31
2022-07-30T03:25:19.212Z,56.74
2022-07-30T03:27:47.483Z,56.94
2022-07-30T03:30:14.705Z,56.64
2022-07-30T03:32:43.048Z,56.42
2022-07-30T03:35:17.004Z,56.44
2022-07-30T03:37:44.983Z,56.72
2022-07-30T03:40:13.613Z,57.15
2022-07-30T03:42:40.413Z,56.41
2022-07-30T03:45:08.891Z,56.20
2022-07-30T03:47:38.893Z,56.25
2022-07-30T03:50:06.379Z,56.45
2022-07-30T03:52:34.938Z,56.56
2022-07-30T03:55:02.577Z,56.70
2022-07-30T03:57:29.333Z,57.00
2022-07-30T03:59:56.226Z,56.37
2022-07-30T04:02:22.809Z,57.90
2022-07-30T04:04:49.372Z,57.75
2022-07-30T04:07:16.076Z,57.13
2022-07-30T04:09:43.915Z,57.21
2022-07-30T04:12:10.538Z,57.82
2022-07-30T04:14:44.729Z,58.33
2022-07-30T04:17:35.163Z,57.84
2022-07-30T04:20:40.616Z,57.61
2022-07-30T04:23:08.161Z,57.15
2022-07-30T04:25:35.012Z,57.63
2022-07-30T04:28:03.340Z,56.89
2022-07-30T04:30:30.986Z,57.11
2022-07-30T04:32:57.521Z,57.43
2022-07-30T04:35:49.788Z,58.57
2022-07-30T04:38:18.600Z,59.09
2022-07-30T04:40:45.940Z,59.74
2022-07-30T04:43:12.609Z,59.39
2022-07-30T04:45:40.287Z,58.57
2022-07-30T04:48:07.566Z,58.24
2022-07-30T04:50:38.501Z,57.69
2022-07-30T04:53:05.330Z,58.49
2022-07-30T04:55:34.113Z,59.09
2022-07-30T04:58:02.084Z,59.51
2022-07-30T05:00:32.412Z,59.10
2022-07-30T05:03:02.479Z,59.92
2022-07-30T05:05:32.446Z,59.29
2022-07-30T05:08:01.441Z,60.86
2022-07-30T05:10:29.107Z,59.83
2022-07-30T05:12:55.622Z,59.07
2022-07-30T05:15:22.226Z,58.05
2022-07-30T05:18:03.287Z,57.18
2022-07-30T05:20:29.811Z,57.18
2022-07-30T05:22:57.770Z,57.18
2022-07-30T05:25:24.343Z,57.02
2022-07-30T05:27:51.403Z,57.38
2022-07-30T05:30:18.077Z,57.16
2022-07-30T05:32:44.625Z,56.74
2022-07-30T05:35:13.603Z,56.85
2022-07-30T05:37:40.171Z,57.17
2022-07-30T05:40:07.123Z,56.87
2022-07-30T05:42:33.631Z,56.81
2022-07-30T05:45:00.386Z,57.28
2022-07-30T05:47:27.610Z,57.19
2022-07-30T05:49:54.147Z,56.66
2022-07-30T05:52:20.777Z,57.03
2022-07-30T05:54:47.340Z,56.24
2022-07-30T05:57:13.854Z,56.64
2022-07-30T05:59:40.479Z,56.76
2022-07-30T06:02:07.120Z,55.99
2022-07-30T06:04:35.553Z,56.23
2022-07-30T06:07:02.614Z,56.91
2022-07-30T06:09:36.333Z,56.78
2022-07-30T06:12:04.328Z,56.52
2022-07-30T06:14:32.265Z,56.47
2022-07-30T06:16:59.197Z,56.75
2022-07-30T06:19:26.376Z,56.47
2022-07-30T06:22:02.123Z,56.56
2022-07-30T06:24:33.702Z,56.90
2022-07-30T06:27:00.801Z,56.78
2022-07-30T06:29:27.535Z,56.49
2022-07-30T06:31:54.114Z,56.75
2022-07-30T06:34:20.764Z,56.43
2022-07-30T06:36:47.306Z,56.84
2022-07-30T06:39:13.862Z,56.90
2022-07-30T06:41:41.661Z,57.06
2022-07-30T06:44:08.209Z,56.89
2022-07-30T06:46:34.869Z,57.14
2022-07-30T06:49:01.992Z,57.09
2022-07-30T06:51:28.579Z,57.39
2022-07-30T06:53:55.129Z,57.21
2022-07-30T06:56:22.878Z,57.18
2022-07-30T06:58:49.388Z,57.23
2022-07-30T07:01:15.980Z,57.71
2022-07-30T07:03:42.573Z,58.09
2022-07-30T07:06:09.328Z,57.20
2022-07-30T07:08:37.357Z,56.82
2022-07-30T07:11:03.955Z,56.87
2022-07-30T07:13:30.461Z,56.97
2022-07-30T07:15:57.969Z,57.14
2022-07-30T07:18:24.567Z,57.07
2022-07-30T07:20:51.117Z,57.14
2022-07-30T07:23:19.869Z,56.76
2022-07-30T07:25:47.388Z,57.57
2022-07-30T07:28:14.045Z,56.92
2022-07-30T07:30:42.228Z,57.08
2022-07-30T07:33:09.115Z,57.71
2022-07-30T07:35:48.403Z,57.90
2022-07-30T07:38:16.292Z,57.56
2022-07-30T07:40:43.266Z,57.34
2022-07-30T07:43:09.801Z,57.02
2022-07-30T07:45:36.390Z,57.04
2022-07-30T07:48:02.919Z,57.16
2022-07-30T07:50:29.575Z,57.55
2022-07-30T07:52:56.211Z,57.59
2022-07-30T07:55:24.667Z,57.86
2022-07-30T07:57:52.428Z,58.47
2022-07-30T08:00:21.103Z,58.26
2022-07-30T08:02:48.300Z,57.84
2022-07-30T08:05:16.035Z,58.45
2022-07-30T08:07:44.042Z,59.43
2022-07-30T08:10:11.576Z,58.44
2022-07-30T08:12:38.182Z,58.15
2022-07-30T08:15:05.361Z,58.20
2022-07-30T08:17:32.002Z,58.20
2022-07-30T08:20:00.596Z,58.80
2022-07-30T08:22:27.841Z,59.44
2022-07-30T08:24:54.451Z,59.46
2022-07-30T08:27:21.081Z,59.95
2022-07-30T08:29:47.686Z,60.31
2022-07-30T08:32:14.224Z,60.85
2022-07-30T08:34:41.436Z,61.15
2022-07-30T08:37:08.529Z,61.44
2022-07-30T08:39:35.081Z,61.51
2022-07-30T08:42:03.891Z,61.75
2022-07-30T08:44:32.530Z,61.93
2022-07-30T08:47:00.338Z,62.39
2022-07-30T08:49:28.977Z,62.35
2022-07-30T08:51:56.406Z,62.24
2022-07-30T08:54:23.381Z,61.95
2022-07-30T08:56:50.411Z,62.99
2022-07-30T08:59:17.990Z,63.10
2022-07-30T09:01:44.628Z,63.05
2022-07-30T09:04:11.212Z,62.90
2022-07-30T09:06:37.934Z,63.73
2022-07-30T09:09:04.506Z,63.14
2022-07-30T09:11:34.430Z,63.77
2022-07-30T09:14:12.712Z,64.49
2022-07-30T09:16:40.587Z,63.85
2022-07-30T09:19:17.697Z,64.22
2022-07-30T09:21:59.108Z,63.63
2022-07-30T09:24:26.791Z,64.53
2022-07-30T09:26:53.258Z,64.74
2022-07-30T09:29:22.643Z,65.13
2022-07-30T09:32:01.428Z,65.51
2022-07-30T09:34:39.276Z,67.26
2022-07-30T09:37:18.521Z,68.75
2022-07-30T09:39:58.867Z,69.75
2022-07-30T09:42:28.882Z,69.55
2022-07-30T09:45:11.846Z,69.30
2022-07-30T09:47:41.729Z,71.53
2022-07-30T09:50:10.700Z,72.10
2022-07-30T09:52:44.316Z,72.50
2022-07-30T09:55:30.854Z,72.94
2022-07-30T09:58:03.093Z,73.83
2022-07-30T10:00:33.150Z,71.74
2022-07-30T10:03:00.662Z,73.46
2022-07-30T10:05:39.606Z,73.14
2022-07-30T10:08:09.215Z,73.80
2022-07-30T10:10:47.210Z,74.97
2022-07-30T10:13:19.746Z,76.67
2022-07-30T10:15:49.741Z,77.96
2022-07-30T10:18:17.656Z,78.43
2022-07-30T10:20:45.671Z,79.65
2022-07-30T10:23:15.902Z,79.74
2022-07-30T10:25:49.032Z,79.32
2022-07-30T10:28:22.348Z,80.24
2022-07-30T10:30:53.555Z,82.02
2022-07-30T10:33:34.644Z,81.82
2022-07-30T10:36:03.774Z,82.42
2022-07-30T10:38:39.134Z,83.16
2022-07-30T10:41:44.495Z,83.74
2022-07-30T10:44:31.312Z,85.03
2022-07-30T10:47:07.001Z,85.68
2022-07-30T10:49:41.698Z,86.39
2022-07-30T10:52:10.922Z,86.59
2022-07-30T10:54:39.713Z,86.25
2022-07-30T10:57:32.484Z,87.29
2022-07-30T11:00:00.560Z,86.72
2022-07-30T11:02:30.560Z,87.61
2022-07-30T11:05:43.847Z,86.98
2022-07-30T11:08:36.204Z,85.88
2022-07-30T11:11:19.432Z,87.15
2022-07-30T11:13:57.428Z,88.92
2022-07-30T11:16:43.973Z,88.07
2022-07-30T11:19:53.353Z,87.93
2022-07-30T11:22:38.403Z,88.53
2022-07-30T11:25:13.182Z,89.28
2022-07-30T11:27:45.460Z,89.15
2022-07-30T11:30:15.587Z,90.33
2022-07-30T11:32:48.356Z,90.50
2022-07-30T11:35:19.494Z,89.33
2022-07-30T11:38:13.033Z,88.45
2022-07-30T11:40:42.324Z,86.72
2022-07-30T11:43:34.577Z,86.66
2022-07-30T11:46:05.723Z,85.33
2022-07-30T11:48:33.979Z,87.38
2022-07-30T11:51:03.986Z,88.30
2022-07-30T11:53:31.040Z,88.83
2022-07-30T11:56:01.129Z,89.45
2022-07-30T11:58:30.038Z,89.89
2022-07-30T12:01:00.916Z,89.56
2022-07-30T12:03:29.837Z,89.60
2022-07-30T12:05:56.782Z,89.35
2022-07-30T12:08:33.509Z,90.75
2022-07-30T12:11:02.914Z,90.35
2022-07-30T12:13:44.043Z,91.31
2022-07-30T12:16:16.732Z,91.35
2022-07-30T12:18:44.207Z,92.63
2022-07-30T12:21:12.708Z,92.82
2022-07-30T12:23:42.076Z,93.94
2022-07-30T12:26:09.080Z,92.99
2022-07-30T12:28:36.392Z,92.83
2022-07-30T12:31:04.455Z,92.28
2022-07-30T12:33:31.406Z,92.62
2022-07-30T12:36:00.790Z,92.66
2022-07-30T12:38:28.956Z,93.10
2022-07-30T12:41:05.691Z,94.12
2022-07-30T12:43:45.034Z,93.98
2022-07-30T12:46:15.211Z,94.35
2022-07-30T12:48:55.730Z,93.26
2022-07-30T12:51:27.613Z,93.98
2022-07-30T12:53:55.755Z,94.41
2022-07-30T12:56:31.534Z,96.10
2022-07-30T12:58:59.816Z,94.93
2022-07-30T13:01:46.171Z,94.53
2022-07-30T13:04:14.453Z,93.91
2022-07-30T13:06:42.062Z,95.17
2022-07-30T13:09:20.146Z,97.09
2022-07-30T13:11:48.660Z,97.67
2022-07-30T13:14:17.306Z,96.50
2022-07-30T13:16:43.992Z,96.70
2022-07-30T13:19:11.894Z,95.61
2022-07-30T13:21:40.427Z,97.00
2022-07-30T13:24:17.870Z,96.38
2022-07-30T13:26:45.213Z,97.47
2022-07-30T13:29:13.483Z,97.36
2022-07-30T13:31:43.435Z,97.66
2022-07-30T13:34:11.342Z,98.72
2022-07-30T13:36:38.077Z,99.64
2022-07-30T13:39:04.719Z,99.70
2022-07-30T13:41:31.427Z,98.91
2022-07-30T13:43:57.970Z,99.03
2022-07-30T13:46:24.603Z,98.87
2022-07-30T13:48:51.272Z,98.97
2022-07-30T13:51:18.105Z,100.00
2022-07-30T13:53:44.665Z,100.00
2022-07-30T13:56:13.200Z,100.00
2022-07-30T13:58:40.457Z,100.00
2022-07-30T14:01:07.500Z,100.00
2022-07-30T14:03:35.313Z,100.00
2022-07-30T14:06:10.618Z,100.00
2022-07-30T14:08:38.889Z,100.00
2022-07-30T14:11:05.662Z,100.00
2022-07-30T14:13:32.209Z,100.00
2022-07-30T14:15:58.955Z,100.00
2022-07-30T14:18:25.648Z,100.00
2022-07-30T14:20:53.756Z,100.00
2022-07-30T14:23:20.812Z,100.00
2022-07-30T14:25:47.670Z,100.00
2022-07-30T14:28:14.457Z,100.00
2022-07-30T14:30:41.779Z,100.00
2022-07-30T14:33:08.344Z,100.00
2022-07-30T14:35:34.947Z,100.00
2022-07-30T14:38:03.410Z,100.00
2022-07-30T14:40:30.088Z,100.00
2022-07-30T14:42:56.758Z,100.00
2022-07-30T14:45:25.419Z,100.00
2022-07-30T14:47:52.305Z,100.00
2022-07-30T14:50:19.037Z,100.00
2022-07-30T14:52:47.485Z,100.00
2022-07-30T14:55:14.158Z,100.00
2022-07-30T14:57:41.797Z,100.00
2022-07-30T15:00:11.035Z,100.00
2022-07-30T15:02:38.363Z,100.00
2022-07-30T15:05:05.371Z,100.00
2022-07-30T15:07:34.819Z,100.00
2022-07-30T15:10:02.588Z,100.00
2022-07-30T15:12:29.249Z,100.00
2022-07-30T15:14:55.925Z,100.00
2022-07-30T15:17:22.602Z,100.00
2022-07-30T15:19:50.375Z,100.00
2022-07-30T15:22:19.296Z,100.00
2022-07-30T15:24:46.040Z,100.00
2022-07-30T15:27:12.801Z,100.00
2022-07-30T15:29:39.439Z,100.00
2022-07-30T15:32:06.771Z,100.00
2022-07-30T15:34:37.067Z,100.00
2022-07-30T15:37:05.316Z,100.00
2022-07-30T15:39:33.061Z,100.00
2022-07-30T15:42:01.530Z,100.00
2022-07-30T15:44:28.748Z,100.00
2022-07-30T15:46:55.412Z,100.00
2022-07-30T15:49:22.293Z,100.00
2022-07-30T15:51:49.141Z,100.00
2022-07-30T15:54:22.118Z,100.00
2022-07-30T15:56:50.665Z,100.00
2022-07-30T15:59:17.709Z,100.00
2022-07-30T16:01:44.615Z,100.00
2022-07-30T16:04:19.151Z,100.00
2022-07-30T16:06:46.419Z,100.00
2022-07-30T16:09:13.815Z,100.00
2022-07-30T16:11:41.635Z,100.00
2022-07-30T16:14:09.233Z,100.00
2022-07-30T16:16:35.802Z,100.00
2022-07-30T16:19:02.497Z,100.00
2022-07-30T16:21:29.025Z,100.00
2022-07-30T16:23:56.689Z,100.00
2022-07-30T16:26:23.251Z,100.00
2022-07-30T16:28:50.461Z,100.00
2022-07-30T16:31:17.707Z,100.00
2022-07-30T16:33:44.332Z,100.00
2022-07-30T16:36:11.400Z,100.00
2022-07-30T16:38:38.063Z,100.00
2022-07-30T16:41:04.634Z,100.00
2022-07-30T16:43:32.087Z,100.00
2022-07-30T16:45:59.599Z,100.00
2022-07-30T16:48:26.803Z,100.00
2022-07-30T16:50:54.023Z,100.00
2022-07-30T16:53:20.862Z,100.00
2022-07-30T16:55:47.720Z,100.00
2022-07-30T16:58:14.359Z,100.00
2022-07-30T17:00:41.762Z,100.00
2022-07-30T17:03:08.931Z,100.00
2022-07-30T17:05:35.581Z,100.00
2022-07-30T17:08:04.793Z,100.00
2022-07-30T17:10:31.447Z,100.00
2022-07-30T17:12:58.086Z,100.00
2022-07-30T17:15:31.953Z,100.00
2022-07-30T17:17:59.746Z,100.00
2022-07-30T17:20:26.406Z,100.00
2022-07-30T17:22:55.347Z,100.00
2022-07-30T17:25:23.593Z,100.00
2022-07-30T17:27:50.238Z,100.00
2022-07-30T17:30:17.358Z,100.00
2022-07-30T17:32:45.220Z,100.00
2022-07-30T17:35:14.022Z,100.00
2022-07-30T17:37:40.889Z,100.00
2022-07-30T17:40:29.548Z,100.00
2022-07-30T17:42:55.468Z,100.00
2022-07-30T17:45:22.026Z,100.00
2022-07-30T17:47:48.597Z,100.00
2022-07-30T17:50:15.167Z,100.00
2022-07-30T17:52:42.366Z,100.00
2022-07-30T17:55:11.316Z,100.00
2022-07-30T17:57:38.507Z,100.00
2022-07-30T18:00:08.753Z,100.00
2022-07-30T18:02:35.580Z,100.00
2022-07-30T18:05:02.416Z,100.00
2022-07-30T18:07:29.072Z,100.00
2022-07-30T18:09:55.636Z,100.00
2022-07-30T18:12:22.473Z,100.00
2022-07-30T18:14:49.058Z,100.00
2022-07-30T18:17:15.703Z,100.00
2022-07-30T18:19:42.395Z,100.00
2022-07-30T18:22:09.294Z,100.00
2022-07-30T18:24:40.439Z,100.00
2022-07-30T18:27:14.880Z,100.00
2022-07-30T18:29:41.986Z,100.00
2022-07-30T18:32:08.829Z,100.00
2022-07-30T18:34:36.037Z,100.00
2022-07-30T18:37:02.720Z,100.00
2022-07-30T18:39:29.247Z,100.00
2022-07-30T18:41:55.855Z,100.00
2022-07-30T18:44:22.367Z,100.00
2022-07-30T18:46:48.924Z,100.00
2022-07-30T18:49:35.585Z,100.00
2022-07-30T18:52:02.936Z,100.00
2022-07-30T18:54:29.881Z,100.00
2022-07-30T18:56:56.490Z,100.00
2022-07-30T18:59:23.370Z,100.00
2022-07-30T19:01:50.055Z,100.00
2022-07-30T19:04:16.638Z,100.00
2022-07-30T19:06:43.262Z,100.00
2022-07-30T19:09:16.790Z,100.00
2022-07-30T19:11:44.992Z,100.00
2022-07-30T19:14:13.293Z,100.00
2022-07-30T19:16:41.029Z,100.00
2022-07-30T19:19:08.186Z,100.00
2022-07-30T19:21:35.301Z,100.00
2022-07-30T19:24:02.301Z,100.00
2022-07-30T19:26:29.097Z,100.00
2022-07-30T19:28:55.819Z,100.00
2022-07-30T19:31:22.459Z,100.00
2022-07-30T19:33:50.248Z,100.00
2022-07-30T19:36:20.783Z,100.00
2022-07-30T19:38:48.958Z,100.00
2022-07-30T19:41:16.602Z,100.00
2022-07-30T19:43:43.472Z,100.00
2022-07-30T19:46:24.424Z,100.00
2022-07-30T19:48:51.039Z,100.00
2022-07-30T19:51:20.910Z,100.00
2022-07-30T19:53:51.995Z,100.00
2022-07-30T19:56:19.602Z,100.00
2022-07-30T19:58:46.382Z,100.00
2022-07-30T20:01:15.779Z,100.00
2022-07-30T20:03:45.786Z,100.00
2022-07-30T20:06:14.578Z,100.00
2022-07-30T20:08:42.058Z,100.00
2022-07-30T20:11:11.985Z,100.00
2022-07-30T20:13:48.066Z,100.00
2022-07-30T20:16:17.095Z,100.00
2022-07-30T20:18:45.794Z,100.00
2022-07-30T20:21:15.349Z,100.00
2022-07-30T20:23:44.426Z,100.00
2022-07-30T20:26:14.075Z,100.00
2022-07-30T20:28:42.390Z,100.00
2022-07-30T20:31:08.944Z,100.00
2022-07-30T20:33:39.078Z,100.00
2022-07-30T20:36:06.144Z,100.00
2022-07-30T20:38:38.803Z,100.00
2022-07-30T20:41:09.820Z,100.00
2022-07-30T20:43:51.492Z,100.00
2022-07-30T20:46:20.176Z,100.00
2022-07-30T20:48:46.842Z,100.00
2022-07-30T20:51:13.978Z,100.00
2022-07-30T20:53:41.913Z,100.00
2022-07-30T20:56:12.317Z,100.00
2022-07-30T20:58:40.909Z,100.00
2022-07-30T21:01:07.752Z,100.00
2022-07-30T21:03:34.484Z,100.00
2022-07-30T21:06:02.639Z,100.00
2022-07-30T21:08:29.273Z,100.00
2022-07-30T21:10:57.482Z,100.00
2022-07-30T21:13:27.025Z,100.00
2022-07-30T21:16:01.939Z,100.00
2022-07-30T21:18:29.865Z,100.00
2022-07-30T21:20:57.372Z,100.00
2022-07-30T21:23:24.735Z,100.00
2022-07-30T21:26:02.997Z,100.00
2022-07-30T21:28:35.321Z,100.00
2022-07-30T21:31:03.556Z,100.00
2022-07-30T21:33:31.221Z,100.00
2022-07-30T21:35:58.561Z,100.00
2022-07-30T21:38:26.569Z,100.00
2022-07-30T21:40:53.626Z,100.00
2022-07-30T21:43:28.714Z,100.00
2022-07-30T21:45:59.966Z,100.00
2022-07-30T21:48:30.471Z,100.00
2022-07-30T21:50:58.346Z,100.00
2022-07-30T21:53:29.436Z,100.00
2022-07-30T21:56:12.254Z,100.00
2022-07-30T21:58:38.882Z,100.00
2022-07-30T22:01:17.334Z,100.00
2022-07-30T22:04:03.003Z,100.00
2022-07-30T22:06:35.034Z,100.00
2022-07-30T22:09:09.909Z,100.00
2022-07-30T22:11:45.345Z,100.00
2022-07-30T22:14:13.190Z,100.00
2022-07-30T22:16:46.447Z,100.00
2022-07-30T22:19:14.667Z,100.00
2022-07-30T22:21:42.668Z,100.00
2022-07-30T22:24:29.431Z,100.00
2022-07-30T22:27:00.955Z,100.00
2022-07-30T22:29:33.912Z,100.00
2022-07-30T22:32:03.321Z,100.00
2022-07-30T22:34:30.341Z,100.00
2022-07-30T22:36:57.561Z,100.00
2022-07-30T22:39:24.448Z,100.00
2022-07-30T22:42:00.953Z,100.00
2022-07-30T22:44:28.169Z,100.00
2022-07-30T22:46:56.534Z,100.00
2022-07-30T22:49:45.143Z,100.00
2022-07-30T22:52:19.575Z,100.00
2022-07-30T22:55:00.807Z,100.00
2022-07-30T22:57:37.698Z,100.00
2022-07-30T23:00:07.262Z,100.00
2022-07-30T23:02:38.221Z,100.00
2022-07-30T23:05:06.403Z,100.00
2022-07-30T23:10:20.719Z,100.00
2022-07-30T23:12:34.235Z,100.00
2022-07-30T23:12:51.262Z,100.00
2022-07-30T23:15:18.360Z,100.00
2022-07-30T23:17:44.943Z,100.00
2022-07-30T23:20:17.835Z,100.00
2022-07-30T23:22:44.476Z,100.00
2022-07-30T23:25:12.901Z,100.00
2022-07-30T23:27:40.279Z,100.00
2022-07-30T23:30:08.955Z,100.00
2022-07-30T23:32:36.786Z,100.00
2022-07-30T23:35:04.022Z,100.00
2022-07-30T23:37:47.678Z,100.00
2022-07-30T23:40:17.255Z,100.00
2022-07-30T23:42:43.791Z,100.00
2022-07-30T23:45:10.803Z,100.00
2022-07-30T23:48:01.283Z,100.00
2022-07-30T23:50:25.180Z,100.00
2022-07-30T23:52:51.981Z,100.00
2022-07-30T23:55:18.638Z,100.00
2022-07-30T23:57:45.156Z,100.00
